Time;durP1;ratioP1;P1;durP2;ratioP2;P2;SDS_P1;SDS_P2;PMS_P1;PMS_P2;Temp;Humidity;BMP_temperature;BMP_pressure;BME280_temperature;BME280_humidity;BME280_pressure;Samples;Min_cycle;Max_cycle;Signal;HPM_P1;HPM_P2
2021/10/19 00:00:36;;;;;;;3.95;2.92;;;;;;;2.46;100.00;93844.66;2064197;28;20624;-90
2021/10/19 00:01:37;;;;;;;4.28;2.70;;;;;;;2.44;100.00;93850.25;2066184;28;20029;-88
2021/10/19 00:02:39;;;;;;;2.80;2.50;;;;;;;2.38;100.00;93846.38;2066112;28;20117;-89
2021/10/19 00:03:40;;;;;;;3.17;2.60;;;;;;;2.34;100.00;93844.78;2057884;28;20139;-90
2021/10/19 00:04:41;;;;;;;3.58;2.95;;;;;;;2.26;100.00;93847.25;2068168;28;20093;-91
2021/10/19 00:05:42;;;;;;;3.25;2.42;;;;;;;2.34;100.00;93840.25;2086697;28;20024;-90
2021/10/19 00:06:43;;;;;;;2.85;2.40;;;;;;;2.55;100.00;93844.44;2074184;28;20069;-88
2021/10/19 00:07:45;;;;;;;4.25;2.58;;;;;;;2.51;100.00;93839.09;2073352;28;20055;-88
2021/10/19 00:08:46;;;;;;;3.25;2.70;;;;;;;2.45;100.00;93843.09;2080819;28;20025;-91
2021/10/19 00:09:47;;;;;;;3.75;2.80;;;;;;;2.40;100.00;93835.47;2068475;28;20076;-89
2021/10/19 00:10:48;;;;;;;3.83;2.85;;;;;;;2.44;100.00;93842.34;2073066;28;20014;-91
2021/10/19 00:11:49;;;;;;;3.38;3.05;;;;;;;2.43;100.00;93848.75;2082200;28;20108;-92
2021/10/19 00:12:50;;;;;;;3.13;2.80;;;;;;;2.38;100.00;93838.47;2073899;28;20076;-91
2021/10/19 00:13:51;;;;;;;7.18;2.90;;;;;;;2.41;100.00;93853.59;2075194;28;20028;-90
2021/10/19 00:14:52;;;;;;;3.30;2.78;;;;;;;2.41;100.00;93850.94;2080595;28;20092;-88
2021/10/19 00:15:53;;;;;;;4.40;3.05;;;;;;;2.46;100.00;93845.41;2072952;28;20459;-89
2021/10/19 00:16:54;;;;;;;3.03;2.72;;;;;;;2.53;100.00;93845.53;2066155;28;20022;-90
2021/10/19 00:17:55;;;;;;;3.92;3.05;;;;;;;2.47;100.00;93851.47;2082277;28;20490;-87
2021/10/19 00:18:56;;;;;;;4.85;2.70;;;;;;;2.42;100.00;93852.50;2088547;28;20099;-88
2021/10/19 00:19:57;;;;;;;4.25;3.85;;;;;;;2.43;100.00;93845.34;2074150;28;20033;-88
2021/10/19 00:20:58;;;;;;;4.40;2.45;;;;;;;2.48;100.00;93847.69;2075564;28;20060;-89
2021/10/19 00:21:59;;;;;;;4.10;3.08;;;;;;;2.40;100.00;93843.38;2065649;28;20042;-89
2021/10/19 00:23:00;;;;;;;4.07;2.97;;;;;;;2.44;100.00;93842.34;2080535;28;20075;-90
2021/10/19 00:24:01;;;;;;;3.10;2.70;;;;;;;2.39;100.00;93839.22;2084620;28;20025;-92
2021/10/19 00:25:06;;;;;;;3.00;2.72;;;;;;;2.42;100.00;93834.03;2073987;28;20109;-90
2021/10/19 00:26:07;;;;;;;2.50;2.30;;;;;;;2.40;100.00;93828.31;2074556;28;20021;-89
2021/10/19 00:27:08;;;;;;;2.88;2.58;;;;;;;2.48;100.00;93831.88;2079701;28;20472;-90
2021/10/19 00:28:09;;;;;;;3.47;2.83;;;;;;;2.53;100.00;93831.59;2089768;28;20023;-90
2021/10/19 00:29:10;;;;;;;3.97;2.42;;;;;;;2.56;100.00;93838.81;2084265;28;20044;-90
2021/10/19 00:30:11;;;;;;;3.25;2.72;;;;;;;2.62;100.00;93829.50;2071672;28;20025;-91
2021/10/19 00:31:12;;;;;;;3.20;2.50;;;;;;;2.64;100.00;93834.47;2066289;28;20105;-90
2021/10/19 00:32:13;;;;;;;3.00;2.80;;;;;;;2.66;100.00;93840.16;2082470;28;20029;-92
2021/10/19 00:33:15;;;;;;;5.53;3.25;;;;;;;2.63;100.00;93841.59;2078026;28;20030;-89
2021/10/19 00:34:16;;;;;;;3.28;2.97;;;;;;;2.64;100.00;93843.13;2071820;28;20034;-92
2021/10/19 00:35:17;;;;;;;5.38;2.42;;;;;;;2.57;100.00;93839.59;2074513;28;20025;-87
2021/10/19 00:36:18;;;;;;;5.78;2.78;;;;;;;2.50;100.00;93838.34;2074059;28;20482;-90
2021/10/19 00:37:19;;;;;;;6.40;2.70;;;;;;;2.45;100.00;93838.59;2073987;28;20061;-89
2021/10/19 00:38:20;;;;;;;4.28;2.72;;;;;;;2.48;100.00;93837.16;2078955;28;20512;-90
2021/10/19 00:39:21;;;;;;;3.47;3.03;;;;;;;2.45;100.00;93838.59;2072973;28;20029;-90
2021/10/19 00:40:22;;;;;;;2.97;2.33;;;;;;;2.43;100.00;93834.78;2069862;28;20049;-92
2021/10/19 00:41:23;;;;;;;3.72;2.47;;;;;;;2.44;100.00;93839.72;2079925;28;20021;-89
2021/10/19 00:42:24;;;;;;;3.22;2.72;;;;;;;2.46;100.00;93842.78;2092712;28;20093;-90
2021/10/19 00:43:26;;;;;;;5.13;2.67;;;;;;;2.41;100.00;93845.66;2088539;28;20025;-88
2021/10/19 00:44:28;;;;;;;3.13;2.47;;;;;;;2.58;100.00;93852.44;2087433;28;20380;-90
2021/10/19 00:45:29;;;;;;;2.88;2.63;;;;;;;2.51;100.00;93852.28;2088630;28;20075;-90
2021/10/19 00:46:30;;;;;;;3.35;2.30;;;;;;;2.45;100.00;93856.31;2087893;28;20112;-89
2021/10/19 00:47:31;;;;;;;2.95;2.25;;;;;;;2.45;100.00;93848.38;2079704;28;20040;-90
2021/10/19 00:48:32;;;;;;;3.00;2.70;;;;;;;2.43;100.00;93858.53;2082746;28;20032;-93
2021/10/19 00:49:33;;;;;;;3.00;2.50;;;;;;;2.40;100.00;93846.03;2076825;28;20034;-91
2021/10/19 00:50:34;;;;;;;3.25;2.35;;;;;;;2.42;100.00;93854.38;2081020;28;20447;-90
2021/10/19 00:51:36;;;;;;;2.75;2.30;;;;;;;2.47;100.00;93852.22;2070632;28;20104;-91
2021/10/19 00:52:37;;;;;;;3.10;2.17;;;;;;;2.48;100.00;93848.47;2073746;28;20118;-91
2021/10/19 00:53:39;;;;;;;3.50;2.45;;;;;;;2.45;100.00;93848.38;2081251;28;20021;-90
2021/10/19 00:54:40;;;;;;;3.70;2.55;;;;;;;2.45;100.00;93846.50;2081008;28;20112;-92
2021/10/19 00:55:42;;;;;;;2.60;2.25;;;;;;;2.47;100.00;93844.31;2083944;28;20363;-88
2021/10/19 00:56:43;;;;;;;2.67;2.38;;;;;;;2.33;100.00;93849.28;2085914;28;20047;-90
2021/10/19 00:57:45;;;;;;;3.30;2.33;;;;;;;2.33;100.00;93843.22;2062566;28;20025;-89
2021/10/19 00:58:47;;;;;;;2.85;2.55;;;;;;;2.35;100.00;93841.78;2076885;28;20070;-92
2021/10/19 00:59:48;;;;;;;4.80;2.85;;;;;;;2.33;100.00;93838.75;2094446;28;20048;-89
2021/10/19 01:00:49;;;;;;;3.03;2.47;;;;;;;2.47;100.00;93839.03;2089095;28;20020;-89
2021/10/19 01:01:50;;;;;;;3.20;2.38;;;;;;;2.48;100.00;93837.16;2090333;28;20094;-88
2021/10/19 01:02:51;;;;;;;3.17;2.72;;;;;;;2.47;100.00;93844.31;2080864;28;20017;-90
2021/10/19 01:03:52;;;;;;;4.43;2.80;;;;;;;2.49;100.00;93843.94;2073849;28;20049;-89
2021/10/19 01:04:55;;;;;;;2.88;2.60;;;;;;;2.35;100.00;93836.50;2068228;28;20049;-90
2021/10/19 01:05:56;;;;;;;6.30;2.60;;;;;;;2.31;100.00;93845.47;2071872;28;20545;-90
2021/10/19 01:06:57;;;;;;;4.40;3.00;;;;;;;2.42;100.00;93841.19;2081861;28;20032;-91
2021/10/19 01:07:59;;;;;;;4.05;2.60;;;;;;;2.34;100.00;93828.94;2077917;28;20490;-90
2021/10/19 01:09:01;;;;;;;4.28;2.40;;;;;;;2.39;100.00;93833.94;2073434;28;20487;-90
2021/10/19 01:10:05;;;;;;;3.58;2.90;;;;;;;2.47;100.00;93827.72;2073732;28;20414;-89
2021/10/19 01:11:07;;;;;;;2.63;2.38;;;;;;;2.51;100.00;93828.56;2066244;28;20018;-89
2021/10/19 01:12:09;;;;;;;3.47;2.22;;;;;;;2.53;100.00;93832.34;2063591;28;20097;-90
2021/10/19 01:13:12;;;;;;;5.95;2.22;;;;;;;2.71;100.00;93829.31;2071975;28;20028;-89
2021/10/19 01:14:12;;;;;;;3.13;2.45;;;;;;;2.58;100.00;93833.19;2073996;28;20545;-89
2021/10/19 01:15:15;;;;;;;2.58;2.38;;;;;;;2.65;100.00;93835.97;2073569;28;20034;-90
2021/10/19 01:16:16;;;;;;;4.22;2.63;;;;;;;2.59;100.00;93838.13;2075941;28;20032;-90
2021/10/19 01:17:17;;;;;;;3.17;2.58;;;;;;;2.53;100.00;93831.59;2068650;28;20025;-89
2021/10/19 01:18:19;;;;;;;5.55;2.75;;;;;;;2.80;100.00;93831.72;2071500;28;20029;-88
2021/10/19 01:19:24;;;;;;;3.42;2.28;;;;;;;2.79;100.00;93830.97;2081282;28;20471;-88
2021/10/19 01:20:28;;;;;;;3.50;2.42;;;;;;;2.93;100.00;93827.84;2074341;28;20022;-90
2021/10/19 01:21:29;;;;;;;5.93;2.72;;;;;;;2.70;100.00;93822.50;2066190;28;20026;-89
2021/10/19 01:22:30;;;;;;;6.68;2.83;;;;;;;2.66;100.00;93826.94;2067461;28;20129;-93
2021/10/19 01:23:33;;;;;;;4.07;2.30;;;;;;;2.64;100.00;93818.63;2065849;28;20033;-90
2021/10/19 01:24:34;;;;;;;2.80;2.35;;;;;;;2.62;100.00;93823.47;2065733;28;20538;-89
2021/10/19 01:25:35;;;;;;;4.65;2.28;;;;;;;2.66;100.00;93821.66;2065794;28;20041;-89
2021/10/19 01:26:36;;;;;;;2.42;2.22;;;;;;;2.67;100.00;93823.19;2069560;28;20108;-89
2021/10/19 01:27:53;;;;;;;3.58;2.30;;;;;;;2.60;100.00;93818.56;2075565;28;20098;-89
2021/10/19 01:28:54;;;;;;;2.25;1.98;;;;;;;2.66;100.00;93822.44;2076798;28;20037;-89
2021/10/19 01:29:55;;;;;;;2.33;2.13;;;;;;;2.60;100.00;93815.16;2063238;28;20030;-88
2021/10/19 01:30:59;;;;;;;4.28;2.50;;;;;;;2.71;100.00;93819.50;2072425;28;20108;-88
2021/10/19 01:32:01;;;;;;;2.85;1.90;;;;;;;2.87;100.00;93816.78;2076017;28;20028;-89
2021/10/19 01:33:02;;;;;;;2.90;2.38;;;;;;;2.74;100.00;93820.69;2070046;28;20050;-89
2021/10/19 01:34:03;;;;;;;2.67;2.08;;;;;;;2.87;100.00;93824.72;2066994;28;20022;-90
2021/10/19 01:35:05;;;;;;;3.85;2.40;;;;;;;2.81;100.00;93822.69;2075400;28;20065;-91
2021/10/19 01:36:07;;;;;;;4.68;2.08;;;;;;;2.89;100.00;93819.84;2074643;28;20380;-91
2021/10/19 01:37:08;;;;;;;4.90;2.55;;;;;;;2.74;100.00;93823.34;2076432;28;20447;-90
2021/10/19 01:38:16;;;;;;;2.42;2.10;;;;;;;2.78;100.00;93814.38;2076204;28;20022;-90
2021/10/19 01:39:16;;;;;;;3.95;2.13;;;;;;;2.78;100.00;93816.25;2074238;28;20118;-90
2021/10/19 01:40:17;;;;;;;3.00;2.10;;;;;;;2.78;100.00;93819.66;2062926;28;20046;-91
2021/10/19 01:41:18;;;;;;;8.32;2.83;;;;;;;2.83;100.00;93813.31;2072224;28;20045;-89
2021/10/19 01:42:19;;;;;;;2.20;2.00;;;;;;;2.80;100.00;93814.00;2086666;28;20017;-90
2021/10/19 01:43:23;;;;;;;3.60;2.65;;;;;;;2.76;100.00;93816.56;2073482;28;20610;-91
2021/10/19 01:44:24;;;;;;;4.82;2.35;;;;;;;2.78;100.00;93819.66;2062483;28;20023;-89
2021/10/19 01:45:25;;;;;;;2.80;2.20;;;;;;;2.89;100.00;93819.84;2070882;28;20753;-90
2021/10/19 01:46:26;;;;;;;3.25;2.53;;;;;;;2.94;100.00;93810.88;2077399;28;20413;-88
2021/10/19 01:47:28;;;;;;;4.38;2.00;;;;;;;2.88;100.00;93814.91;2082747;28;20032;-89
2021/10/19 01:48:31;;;;;;;3.03;2.28;;;;;;;2.85;100.00;93805.03;2075795;28;20080;-89
2021/10/19 01:49:32;;;;;;;2.70;2.28;;;;;;;2.99;100.00;93803.44;2069521;28;20037;-88
2021/10/19 01:50:34;;;;;;;2.40;2.20;;;;;;;2.97;100.00;93808.28;2071951;28;20018;-90
2021/10/19 01:51:35;;;;;;;3.17;2.30;;;;;;;2.97;100.00;93804.91;2070044;28;20077;-91
2021/10/19 01:52:36;;;;;;;4.45;2.65;;;;;;;3.01;100.00;93800.44;2073587;28;20105;-88
2021/10/19 01:53:38;;;;;;;2.97;2.58;;;;;;;3.01;100.00;93803.09;2078443;28;20462;-88
2021/10/19 01:54:39;;;;;;;2.67;2.30;;;;;;;2.98;100.00;93809.06;2079450;28;20041;-90
2021/10/19 01:55:41;;;;;;;2.22;2.03;;;;;;;3.03;100.00;93795.59;2073356;28;20022;-91
2021/10/19 01:56:42;;;;;;;2.72;2.10;;;;;;;3.10;100.00;93800.22;2073867;28;20502;-91
2021/10/19 01:57:43;;;;;;;2.30;1.95;;;;;;;3.12;100.00;93798.00;2079714;28;20039;-89
2021/10/19 01:58:45;;;;;;;3.80;2.13;;;;;;;3.16;100.00;93793.53;2077153;28;20013;-87
2021/10/19 01:59:45;;;;;;;3.38;2.13;;;;;;;3.39;100.00;93804.13;2078164;28;20072;-90
2021/10/19 02:00:46;;;;;;;2.60;2.30;;;;;;;3.40;100.00;93801.13;2069185;28;20027;-87
2021/10/19 02:01:48;;;;;;;2.42;2.22;;;;;;;3.42;100.00;93801.50;2061791;28;20064;-89
2021/10/19 02:02:49;;;;;;;2.33;2.13;;;;;;;3.40;100.00;93801.13;2065509;28;20018;-88
2021/10/19 02:03:50;;;;;;;2.58;1.95;;;;;;;3.44;100.00;93796.66;2070192;28;20060;-88
2021/10/19 02:04:51;;;;;;;2.72;2.10;;;;;;;3.32;100.00;93794.19;2069221;28;20414;-88
2021/10/19 02:05:52;;;;;;;4.60;2.47;;;;;;;3.35;100.00;93793.47;2073326;28;20034;-90
2021/10/19 02:08:04;;;;;;;2.40;2.05;;;;;;;3.64;100.00;93786.00;2138841;27;20166;-87
2021/10/19 02:09:06;;;;;;;3.45;1.80;;;;;;;3.54;100.00;93795.28;2117577;28;20032;-89
2021/10/19 02:10:08;;;;;;;3.60;1.90;;;;;;;3.56;100.00;93789.63;2100810;28;20489;-88
2021/10/19 02:11:09;;;;;;;2.83;2.00;;;;;;;3.49;100.00;93799.00;2110458;28;20493;-87
2021/10/19 02:12:10;;;;;;;3.53;1.80;;;;;;;3.57;100.00;93791.19;2112403;28;20026;-89
2021/10/19 02:13:12;;;;;;;2.17;1.98;;;;;;;3.56;100.00;93797.56;2113125;28;20016;-86
2021/10/19 02:14:13;;;;;;;2.30;2.10;;;;;;;3.44;100.00;93794.00;2113399;28;20145;-86
2021/10/19 02:15:14;;;;;;;2.53;1.85;;;;;;;3.49;100.00;93788.41;2100627;28;20074;-86
2021/10/19 02:16:15;;;;;;;2.17;1.98;;;;;;;3.52;100.00;93787.72;2107126;28;20031;-91
2021/10/19 02:17:16;;;;;;;2.22;2.03;;;;;;;3.61;100.00;93779.56;2103164;28;20044;-88
2021/10/19 02:18:17;;;;;;;2.60;2.05;;;;;;;3.60;100.00;93787.81;2113371;28;20019;-90
2021/10/19 02:19:21;;;;;;;2.17;1.70;;;;;;;3.60;100.00;93787.81;2113016;27;20024;-90
2021/10/19 02:20:23;;;;;;;2.20;1.73;;;;;;;3.58;100.00;93784.78;2112552;28;20030;-89
2021/10/19 02:21:24;;;;;;;2.47;1.95;;;;;;;3.79;100.00;93787.75;2111979;28;20077;-88
2021/10/19 02:22:25;;;;;;;2.60;2.05;;;;;;;3.67;100.00;93775.47;2112640;28;20085;-87
2021/10/19 02:23:26;;;;;;;2.30;2.03;;;;;;;3.62;100.00;93767.84;2113052;28;20028;-90
2021/10/19 02:24:27;;;;;;;2.05;1.85;;;;;;;3.69;100.00;93772.50;2121787;28;20116;-90
2021/10/19 02:25:28;;;;;;;1.80;1.70;;;;;;;3.68;100.00;93769.06;2104846;28;20066;-93
2021/10/19 02:26:29;;;;;;;2.25;2.05;;;;;;;3.64;100.00;93760.31;2121103;27;20061;-90
2021/10/19 02:27:30;;;;;;;2.80;1.67;;;;;;;3.71;100.00;93771.00;2113489;28;20454;-90
2021/10/19 02:28:31;;;;;;;2.40;2.05;;;;;;;3.67;100.00;93775.47;2105366;28;20024;-87
2021/10/19 02:29:32;;;;;;;2.30;2.10;;;;;;;3.82;100.00;93779.09;2102924;28;20027;-89
2021/10/19 02:30:33;;;;;;;3.28;1.80;;;;;;;3.82;100.00;93779.09;2103150;28;20016;-88
2021/10/19 02:31:34;;;;;;;1.95;1.73;;;;;;;3.68;100.00;93779.63;2104658;28;20031;-87
2021/10/19 02:32:36;;;;;;;4.15;1.83;;;;;;;3.69;100.00;93780.44;2104690;28;20405;-88
2021/10/19 02:33:37;;;;;;;6.35;2.20;;;;;;;3.64;100.00;93778.06;2113332;28;20023;-88
2021/10/19 02:34:39;;;;;;;2.15;1.95;;;;;;;3.74;100.00;93783.53;2121740;28;20357;-86
2021/10/19 02:35:40;;;;;;;2.30;2.10;;;;;;;3.70;100.00;93782.69;2120503;28;20034;-89
2021/10/19 02:36:41;;;;;;;2.25;2.03;;;;;;;3.71;100.00;93780.81;2113187;28;20043;-91
2021/10/19 02:37:44;;;;;;;1.95;1.80;;;;;;;3.75;100.00;93776.34;2121303;27;20056;-88
2021/10/19 02:38:45;;;;;;;1.95;1.80;;;;;;;3.70;100.00;93780.06;2112944;28;20011;-89
2021/10/19 02:39:45;;;;;;;3.17;2.00;;;;;;;3.65;100.00;93772.44;2104535;28;20384;-86
2021/10/19 02:40:46;;;;;;;2.88;1.75;;;;;;;3.72;100.00;93772.53;2113797;28;20110;-91
2021/10/19 02:41:47;;;;;;;3.58;2.20;;;;;;;3.87;100.00;93770.09;2109363;28;20020;-88
2021/10/19 02:42:48;;;;;;;1.80;1.70;;;;;;;3.80;100.00;93773.41;2102497;28;20123;-89
2021/10/19 02:43:49;;;;;;;3.70;2.20;;;;;;;3.78;100.00;93765.84;2106517;28;20134;-90
2021/10/19 02:44:50;;;;;;;3.75;2.05;;;;;;;3.73;100.00;93765.34;2103595;28;20066;-90
2021/10/19 02:45:51;;;;;;;3.08;2.15;;;;;;;3.83;100.00;93770.06;2112195;27;20107;-89
2021/10/19 02:46:52;;;;;;;4.82;2.10;;;;;;;3.87;100.00;93772.75;2111907;28;20107;-88
2021/10/19 02:47:53;;;;;;;2.38;1.67;;;;;;;3.83;100.00;93771.94;2120456;28;20012;-89
2021/10/19 02:48:54;;;;;;;2.38;2.17;;;;;;;3.81;100.00;93774.91;2104890;28;20395;-89
2021/10/19 02:49:55;;;;;;;2.22;1.92;;;;;;;3.82;100.00;93780.97;2107261;28;20368;-92
2021/10/19 02:50:56;;;;;;;2.17;1.85;;;;;;;3.91;100.00;93784.16;2104819;28;20021;-90
2021/10/19 02:51:57;;;;;;;2.15;1.60;;;;;;;3.91;100.00;93781.50;2113086;28;20073;-88
2021/10/19 02:52:58;;;;;;;1.67;1.48;;;;;;;3.75;100.00;93785.03;2129956;27;20019;-90
2021/10/19 02:53:59;;;;;;;3.08;1.80;;;;;;;3.77;100.00;93788.06;2127976;27;20060;-91
2021/10/19 02:55:00;;;;;;;2.10;1.60;;;;;;;3.71;100.00;93781.56;2104494;28;20112;-87
2021/10/19 02:56:01;;;;;;;2.00;1.75;;;;;;;3.72;100.00;93774.41;2105759;28;20048;-88
2021/10/19 02:57:02;;;;;;;2.25;2.05;;;;;;;3.71;100.00;93778.94;2113096;28;20483;-87
2021/10/19 02:58:03;;;;;;;4.57;1.80;;;;;;;3.79;100.00;93780.56;2112933;27;20026;-88
2021/10/19 02:59:05;;;;;;;2.25;1.83;;;;;;;3.92;100.00;93777.72;2119317;27;20404;-87
2021/10/19 03:00:07;;;;;;;2.97;2.13;;;;;;;3.90;100.00;93777.31;2112671;28;20051;-87
2021/10/19 03:01:08;;;;;;;2.20;2.00;;;;;;;3.88;100.00;93774.28;2102982;28;20050;-87
2021/10/19 03:02:09;;;;;;;2.83;2.05;;;;;;;3.92;100.00;93780.38;2112778;28;20049;-88
2021/10/19 03:03:10;;;;;;;3.92;2.08;;;;;;;3.90;100.00;93786.00;2104659;28;20028;-90
2021/10/19 03:04:11;;;;;;;2.60;2.03;;;;;;;3.91;100.00;93784.16;2104560;28;20028;-87
2021/10/19 03:05:15;;;;;;;2.78;1.83;;;;;;;3.90;100.00;93779.94;2104774;28;20024;-87
2021/10/19 03:06:16;;;;;;;3.05;1.77;;;;;;;3.83;100.00;93788.56;2111378;27;20019;-89
2021/10/19 03:07:17;;;;;;;1.77;1.67;;;;;;;3.87;100.00;93788.63;2112743;28;20020;-90
2021/10/19 03:08:18;;;;;;;3.28;1.95;;;;;;;3.89;100.00;93795.06;2103729;28;20073;-87
2021/10/19 03:09:19;;;;;;;2.35;2.00;;;;;;;3.97;100.00;93788.00;2110102;28;20021;-87
2021/10/19 03:10:20;;;;;;;3.05;1.90;;;;;;;3.96;100.00;93799.69;2108779;28;20032;-87
2021/10/19 03:11:21;;;;;;;2.17;1.98;;;;;;;3.94;100.00;93786.81;2104655;28;20118;-88
2021/10/19 03:12:22;;;;;;;2.28;1.80;;;;;;;4.02;100.00;93795.63;2107590;28;20028;-89
2021/10/19 03:13:24;;;;;;;5.53;2.00;;;;;;;3.98;100.00;93798.22;2100248;28;20012;-88
2021/10/19 03:14:25;;;;;;;4.13;2.08;;;;;;;4.01;100.00;93791.47;2104758;28;20469;-87
2021/10/19 03:15:26;;;;;;;2.25;1.88;;;;;;;4.02;100.00;93795.63;2105531;28;20073;-87
2021/10/19 03:16:27;;;;;;;2.45;2.03;;;;;;;4.12;100.00;93800.28;2116495;28;20023;-86
2021/10/19 03:17:28;;;;;;;1.88;1.70;;;;;;;4.12;100.00;93802.94;2113019;28;20022;-90
2021/10/19 03:18:29;;;;;;;2.13;1.85;;;;;;;4.23;100.00;93798.56;2112716;28;20086;-91
2021/10/19 03:19:30;;;;;;;2.80;2.13;;;;;;;4.18;100.00;93798.88;2095026;28;20123;-88
2021/10/19 03:20:31;;;;;;;1.88;1.77;;;;;;;4.13;100.00;93798.44;2104159;28;20835;-90
2021/10/19 03:21:32;;;;;;;3.45;1.98;;;;;;;4.11;100.00;93793.47;2109772;28;20119;-92
2021/10/19 03:22:33;;;;;;;2.50;2.20;;;;;;;4.17;100.00;93796.56;2096778;28;20036;-89
2021/10/19 03:23:34;;;;;;;3.17;2.10;;;;;;;4.16;100.00;93792.41;2106563;28;20038;-88
2021/10/19 03:24:35;;;;;;;4.13;1.83;;;;;;;4.18;100.00;93796.22;2106748;28;20062;-88
2021/10/19 03:25:36;;;;;;;5.28;2.40;;;;;;;4.14;100.00;93794.66;2105274;28;20016;-87
2021/10/19 03:26:37;;;;;;;3.72;2.00;;;;;;;4.10;100.00;93796.50;2098492;28;20066;-87
2021/10/19 03:27:38;;;;;;;6.47;2.10;;;;;;;4.14;100.00;93792.00;2106816;28;20168;-87
2021/10/19 03:28:39;;;;;;;4.20;1.80;;;;;;;4.15;100.00;93790.88;2124273;27;20080;-87
2021/10/19 03:29:41;;;;;;;2.03;1.77;;;;;;;4.20;100.00;93790.56;2110396;28;20077;-87
2021/10/19 03:30:42;;;;;;;2.63;1.83;;;;;;;4.20;100.00;93793.22;2107526;28;20016;-88
2021/10/19 03:31:43;;;;;;;3.90;2.10;;;;;;;4.18;100.00;93800.75;2098283;28;21706;-89
2021/10/19 03:32:44;;;;;;;3.85;2.35;;;;;;;4.26;100.00;93799.75;2107209;28;20036;-90
2021/10/19 03:33:45;;;;;;;3.78;1.60;;;;;;;4.22;100.00;93793.63;2106380;28;20423;-89
2021/10/19 03:34:46;;;;;;;2.28;1.98;;;;;;;4.17;100.00;93785.97;2098856;28;20070;-90
2021/10/19 03:35:47;;;;;;;2.95;2.00;;;;;;;4.21;100.00;93782.25;2092726;28;20116;-90
2021/10/19 03:36:48;;;;;;;2.85;2.20;;;;;;;4.22;100.00;93789.09;2099150;28;20012;-91
2021/10/19 03:37:49;;;;;;;2.63;2.10;;;;;;;4.29;100.00;93796.34;2115389;28;20026;-90
2021/10/19 03:38:50;;;;;;;3.58;1.88;;;;;;;4.22;100.00;93793.63;2117860;27;20376;-87
2021/10/19 03:39:51;;;;;;;2.22;2.03;;;;;;;4.27;100.00;93796.72;2103639;28;20027;-91
2021/10/19 03:40:52;;;;;;;2.15;1.85;;;;;;;4.45;100.00;93793.53;2107331;28;20030;-88
2021/10/19 03:41:53;;;;;;;3.92;2.00;;;;;;;4.43;100.00;93793.13;2105238;28;20023;-90
2021/10/19 03:42:54;;;;;;;2.42;2.05;;;;;;;4.35;100.00;93792.28;2113612;28;20020;-91
2021/10/19 03:43:55;;;;;;;1.98;1.80;;;;;;;4.44;100.00;93792.03;2113308;28;20426;-87
2021/10/19 03:44:56;;;;;;;2.38;1.75;;;;;;;4.37;100.00;93787.38;2115235;28;20020;-90
2021/10/19 03:45:57;;;;;;;2.20;2.00;;;;;;;4.31;100.00;93791.47;2107920;28;20091;-88
2021/10/19 03:46:58;;;;;;;4.07;2.22;;;;;;;4.22;100.00;93783.06;2107259;28;20106;-88
2021/10/19 03:47:59;;;;;;;3.10;1.83;;;;;;;4.29;100.00;93783.13;2102170;28;20469;-87
2021/10/19 03:49:00;;;;;;;4.05;1.80;;;;;;;4.31;100.00;93785.44;2090731;28;20032;-89
2021/10/19 03:50:01;;;;;;;2.10;1.90;;;;;;;4.22;100.00;93781.16;2094974;28;20436;-90
2021/10/19 03:51:02;;;;;;;2.25;1.90;;;;;;;4.20;100.00;93778.09;2095844;28;20032;-91
2021/10/19 03:52:04;;;;;;;2.10;1.90;;;;;;;4.20;100.00;93779.97;2098766;28;20024;-87
2021/10/19 03:53:05;;;;;;;1.98;1.77;;;;;;;4.27;100.00;93782.72;2099082;28;20108;-88
2021/10/19 03:54:06;;;;;;;2.10;1.90;;;;;;;4.33;100.00;93776.00;2103540;28;20062;-87
2021/10/19 03:55:08;;;;;;;2.58;2.38;;;;;;;4.36;100.00;93785.09;2098944;28;20016;-91
2021/10/19 03:56:09;;;;;;;2.47;2.10;;;;;;;4.48;100.00;93782.25;2099000;28;20671;-87
2021/10/19 03:57:10;;;;;;;2.33;1.90;;;;;;;4.46;100.00;93795.06;2098759;28;20028;-89
2021/10/19 03:58:11;;;;;;;2.13;1.90;;;;;;;4.46;100.00;93792.41;2102917;28;20515;-90
2021/10/19 03:59:12;;;;;;;2.20;1.80;;;;;;;4.37;100.00;93782.09;2115690;28;20020;-91
2021/10/19 04:00:13;;;;;;;2.72;1.73;;;;;;;4.29;100.00;93785.78;2107046;28;20020;-89
2021/10/19 04:01:14;;;;;;;2.55;1.55;;;;;;;4.26;100.00;93787.25;2099016;28;20027;-86
2021/10/19 04:02:15;;;;;;;1.85;1.75;;;;;;;4.28;100.00;93787.66;2111075;28;20031;-87
2021/10/19 04:03:16;;;;;;;2.30;1.70;;;;;;;4.31;100.00;93786.19;2107110;28;20024;-90
2021/10/19 04:04:19;;;;;;;1.70;1.60;;;;;;;4.39;100.00;93785.16;2094199;28;20031;-88
2021/10/19 04:05:23;;;;;;;2.90;2.03;;;;;;;4.47;100.00;93784.09;2099677;28;20083;-87
2021/10/19 04:06:24;;;;;;;2.92;1.95;;;;;;;4.51;100.00;93779.63;2095886;28;20126;-87
2021/10/19 04:07:25;;;;;;;1.85;1.75;;;;;;;4.50;100.00;93790.56;2098662;28;20095;-88
2021/10/19 04:08:26;;;;;;;2.22;2.00;;;;;;;4.39;100.00;93785.16;2094897;28;20489;-87
2021/10/19 04:09:28;;;;;;;2.55;1.95;;;;;;;4.35;100.00;93788.88;2107094;28;20110;-90
2021/10/19 04:10:29;;;;;;;5.53;2.08;;;;;;;4.39;100.00;93789.66;2106966;28;20020;-88
2021/10/19 04:11:30;;;;;;;3.30;2.22;;;;;;;4.45;100.00;93785.59;2096244;28;20028;-87
2021/10/19 04:12:31;;;;;;;2.15;1.90;;;;;;;4.64;100.00;93780.13;2091248;28;20028;-87
2021/10/19 04:13:33;;;;;;;2.90;2.05;;;;;;;4.50;100.00;93775.44;2090541;28;20032;-90
2021/10/19 04:14:34;;;;;;;3.85;1.90;;;;;;;4.68;100.00;93777.53;2091480;28;20024;-91
2021/10/19 04:15:35;;;;;;;3.35;2.25;;;;;;;4.69;100.00;93779.81;2098798;28;20031;-89
2021/10/19 04:16:37;;;;;;;4.90;2.00;;;;;;;4.64;100.00;93789.97;2092278;28;20017;-90
2021/10/19 04:17:38;;;;;;;2.15;1.80;;;;;;;4.66;100.00;93785.84;2107277;28;20027;-91
2021/10/19 04:18:39;;;;;;;4.10;2.10;;;;;;;4.54;100.00;93788.72;2098523;28;20426;-89
2021/10/19 04:19:40;;;;;;;2.95;2.75;;;;;;;4.48;100.00;93782.25;2098721;28;20028;-89
2021/10/19 04:20:41;;;;;;;3.20;2.45;;;;;;;4.50;100.00;93785.28;2091815;28;20020;-92
2021/10/19 04:21:45;;;;;;;3.53;3.20;;;;;;;4.61;100.00;93786.19;2098518;28;20031;-91
2021/10/19 04:22:46;;;;;;;3.60;2.90;;;;;;;4.57;100.00;93781.97;2108138;27;20487;-90
2021/10/19 04:23:47;;;;;;;4.00;3.53;;;;;;;4.58;100.00;93778.19;2115656;28;20498;-90
2021/10/19 04:24:51;;;;;;;4.43;3.10;;;;;;;4.69;100.00;93779.81;2105574;28;20035;-90
2021/10/19 04:25:52;;;;;;;3.08;2.60;;;;;;;4.61;100.00;93780.09;2094081;28;20807;-92
2021/10/19 04:26:53;;;;;;;5.40;2.72;;;;;;;4.63;100.00;93783.16;2098491;28;20024;-92
2021/10/19 04:27:54;;;;;;;3.33;2.15;;;;;;;4.64;100.00;93777.50;2107030;27;20054;-87
2021/10/19 04:28:55;;;;;;;2.33;2.13;;;;;;;4.68;100.00;93785.47;2106807;28;20492;-90
2021/10/19 04:29:56;;;;;;;2.70;2.40;;;;;;;4.85;100.00;93784.91;2098595;28;20088;-88
2021/10/19 04:30:57;;;;;;;3.53;2.40;;;;;;;4.75;100.00;93781.03;2091062;28;20347;-89
2021/10/19 04:31:58;;;;;;;3.97;2.70;;;;;;;4.81;100.00;93784.13;2098761;28;20535;-90
2021/10/19 04:32:59;;;;;;;2.45;2.20;;;;;;;4.71;100.00;93782.13;2098628;28;20024;-91
2021/10/19 04:34:02;;;;;;;3.13;2.33;;;;;;;4.75;100.00;93786.34;2090601;28;20021;-89
2021/10/19 04:35:03;;;;;;;2.80;2.50;;;;;;;4.87;100.00;93790.59;2100587;27;20051;-90
2021/10/19 04:36:05;;;;;;;3.42;2.85;;;;;;;4.94;100.00;93785.38;2106933;28;20497;-88
2021/10/19 04:37:06;;;;;;;5.40;2.92;;;;;;;4.91;100.00;93794.06;2092722;28;20473;-88
2021/10/19 04:38:07;;;;;;;5.60;2.60;;;;;;;4.91;100.00;93785.34;2107180;28;20108;-92
2021/10/19 04:39:08;;;;;;;3.30;3.00;;;;;;;4.90;100.00;93789.13;2100389;28;20020;-89
2021/10/19 04:40:09;;;;;;;4.15;2.53;;;;;;;4.88;100.00;93784.19;2106720;28;20028;-91
2021/10/19 04:41:10;;;;;;;3.22;2.40;;;;;;;5.02;100.00;93791.53;2099937;28;20024;-90
2021/10/19 04:42:12;;;;;;;4.47;2.30;;;;;;;4.97;100.00;93799.81;2106894;28;20031;-91
2021/10/19 04:43:13;;;;;;;2.90;2.45;;;;;;;4.87;100.00;93803.09;2097853;28;20021;-91
2021/10/19 04:44:14;;;;;;;6.20;2.33;;;;;;;4.83;100.00;93811.00;2090414;28;20021;-90
2021/10/19 04:45:16;;;;;;;2.60;2.40;;;;;;;4.83;100.00;93810.22;2093574;28;20070;-91
2021/10/19 04:46:18;;;;;;;3.60;2.70;;;;;;;4.91;100.00;93802.00;2107220;28;20626;-88
2021/10/19 04:47:19;;;;;;;2.88;2.63;;;;;;;4.90;100.00;93803.13;2115037;28;20023;-89
2021/10/19 04:48:21;;;;;;;3.03;2.72;;;;;;;4.84;100.00;93803.84;2106833;28;20177;-89
2021/10/19 04:49:22;;;;;;;4.30;3.13;;;;;;;4.78;100.00;93796.22;2106248;28;20024;-90
2021/10/19 04:50:24;;;;;;;2.85;2.65;;;;;;;4.75;100.00;93806.75;2097547;28;20063;-90